sensor_id;sensor_type;location;lat;lon;timestamp;temperature;humidity
43997;DHT22;34318;45.818;15.964;2022-07-21T00:01:52;25.40;56.30
43997;DHT22;34318;45.818;15.964;2022-07-21T00:04:20;25.20;56.40
43997;DHT22;34318;45.818;15.964;2022-07-21T00:06:48;25.30;56.40
43997;DHT22;34318;45.818;15.964;2022-07-21T00:09:15;25.30;56.40
43997;DHT22;34318;45.818;15.964;2022-07-21T00:11:42;25.20;56.60
43997;DHT22;34318;45.818;15.964;2022-07-21T00:14:10;25.20;56.60
43997;DHT22;34318;45.818;15.964;2022-07-21T00:16:39;25.20;56.40
43997;DHT22;34318;45.818;15.964;2022-07-21T00:19:07;25.20;56.60
43997;DHT22;34318;45.818;15.964;2022-07-21T00:21:34;25.20;56.40
43997;DHT22;34318;45.818;15.964;2022-07-21T00:24:02;25.30;56.50
43997;DHT22;34318;45.818;15.964;2022-07-21T00:26:30;25.30;56.50
43997;DHT22;34318;45.818;15.964;2022-07-21T00:28:57;25.40;56.30
43997;DHT22;34318;45.818;15.964;2022-07-21T00:31:24;25.30;56.40
43997;DHT22;34318;45.818;15.964;2022-07-21T00:33:51;25.40;56.30
43997;DHT22;34318;45.818;15.964;2022-07-21T00:36:19;25.20;56.50
43997;DHT22;34318;45.818;15.964;2022-07-21T00:38:46;25.20;56.70
43997;DHT22;34318;45.818;15.964;2022-07-21T00:41:14;25.30;56.60
43997;DHT22;34318;45.818;15.964;2022-07-21T00:43:41;25.30;56.30
43997;DHT22;34318;45.818;15.964;2022-07-21T00:46:08;25.30;56.30
43997;DHT22;34318;45.818;15.964;2022-07-21T00:48:35;25.40;56.10
43997;DHT22;34318;45.818;15.964;2022-07-21T00:51:02;25.30;56.00
43997;DHT22;34318;45.818;15.964;2022-07-21T00:53:29;25.30;56.20
43997;DHT22;34318;45.818;15.964;2022-07-21T00:55:56;25.20;56.30
43997;DHT22;34318;45.818;15.964;2022-07-21T00:58:23;25.20;56.40
43997;DHT22;34318;45.818;15.964;2022-07-21T01:00:50;25.20;56.50
43997;DHT22;34318;45.818;15.964;2022-07-21T01:03:17;25.20;56.30
43997;DHT22;34318;45.818;15.964;2022-07-21T01:05:44;25.10;56.60
43997;DHT22;34318;45.818;15.964;2022-07-21T01:08:12;25.10;56.60
43997;DHT22;34318;45.818;15.964;2022-07-21T01:10:39;25.20;56.50
43997;DHT22;34318;45.818;15.964;2022-07-21T01:13:06;25.10;56.50
43997;DHT22;34318;45.818;15.964;2022-07-21T01:15:33;25.00;56.90
43997;DHT22;34318;45.818;15.964;2022-07-21T01:18:01;25.00;56.90
43997;DHT22;34318;45.818;15.964;2022-07-21T01:20:32;25.00;56.90
43997;DHT22;34318;45.818;15.964;2022-07-21T01:23:00;25.00;56.90
43997;DHT22;34318;45.818;15.964;2022-07-21T01:25:27;25.00;57.00
43997;DHT22;34318;45.818;15.964;2022-07-21T01:27:54;25.10;56.90
43997;DHT22;34318;45.818;15.964;2022-07-21T01:30:21;25.10;56.90
43997;DHT22;34318;45.818;15.964;2022-07-21T01:32:48;25.10;56.90
43997;DHT22;34318;45.818;15.964;2022-07-21T01:35:16;25.10;56.90
43997;DHT22;34318;45.818;15.964;2022-07-21T01:37:44;25.00;57.10
43997;DHT22;34318;45.818;15.964;2022-07-21T01:40:13;25.10;56.90
43997;DHT22;34318;45.818;15.964;2022-07-21T01:42:59;25.10;56.90
43997;DHT22;34318;45.818;15.964;2022-07-21T01:45:27;25.00;57.10
43997;DHT22;34318;45.818;15.964;2022-07-21T01:47:54;25.00;57.00
43997;DHT22;34318;45.818;15.964;2022-07-21T01:50:23;24.90;57.40
43997;DHT22;34318;45.818;15.964;2022-07-21T01:52:55;24.90;57.30
43997;DHT22;34318;45.818;15.964;2022-07-21T01:55:23;24.90;57.50
43997;DHT22;34318;45.818;15.964;2022-07-21T01:57:50;24.90;57.40
43997;DHT22;34318;45.818;15.964;2022-07-21T02:00:17;24.90;58.10
43997;DHT22;34318;45.818;15.964;2022-07-21T02:02:45;24.90;57.50
43997;DHT22;34318;45.818;15.964;2022-07-21T02:05:12;24.90;57.50
43997;DHT22;34318;45.818;15.964;2022-07-21T02:07:39;24.90;57.40
43997;DHT22;34318;45.818;15.964;2022-07-21T02:10:06;24.90;57.40
43997;DHT22;34318;45.818;15.964;2022-07-21T02:12:33;25.00;57.30
43997;DHT22;34318;45.818;15.964;2022-07-21T02:15:00;25.00;57.50
43997;DHT22;34318;45.818;15.964;2022-07-21T02:17:27;24.90;57.60
43997;DHT22;34318;45.818;15.964;2022-07-21T02:19:54;24.90;57.50
43997;DHT22;34318;45.818;15.964;2022-07-21T02:22:21;24.90;58.20
43997;DHT22;34318;45.818;15.964;2022-07-21T02:24:48;24.90;57.60
43997;DHT22;34318;45.818;15.964;2022-07-21T02:27:15;24.80;57.90
43997;DHT22;34318;45.818;15.964;2022-07-21T02:29:42;24.90;57.90
43997;DHT22;34318;45.818;15.964;2022-07-21T02:32:09;24.80;57.90
43997;DHT22;34318;45.818;15.964;2022-07-21T02:34:36;24.90;57.80
43997;DHT22;34318;45.818;15.964;2022-07-21T02:37:02;24.70;58.10
43997;DHT22;34318;45.818;15.964;2022-07-21T02:39:29;24.70;58.20
43997;DHT22;34318;45.818;15.964;2022-07-21T02:41:56;24.80;58.20
43997;DHT22;34318;45.818;15.964;2022-07-21T02:44:23;24.80;58.10
43997;DHT22;34318;45.818;15.964;2022-07-21T02:46:50;24.70;58.30
43997;DHT22;34318;45.818;15.964;2022-07-21T02:49:17;24.70;58.40
43997;DHT22;34318;45.818;15.964;2022-07-21T02:51:43;24.70;58.30
43997;DHT22;34318;45.818;15.964;2022-07-21T02:54:11;24.90;57.90
43997;DHT22;34318;45.818;15.964;2022-07-21T02:56:37;24.80;58.20
43997;DHT22;34318;45.818;15.964;2022-07-21T02:59:05;24.90;58.00
43997;DHT22;34318;45.818;15.964;2022-07-21T03:01:32;24.90;58.20
43997;DHT22;34318;45.818;15.964;2022-07-21T03:03:59;24.90;58.20
43997;DHT22;34318;45.818;15.964;2022-07-21T03:06:26;24.70;58.60
43997;DHT22;34318;45.818;15.964;2022-07-21T03:08:53;24.70;58.80
43997;DHT22;34318;45.818;15.964;2022-07-21T03:11:20;24.80;58.70
43997;DHT22;34318;45.818;15.964;2022-07-21T03:13:47;24.80;58.50
43997;DHT22;34318;45.818;15.964;2022-07-21T03:16:14;24.90;58.40
43997;DHT22;34318;45.818;15.964;2022-07-21T03:18:41;24.80;58.40
43997;DHT22;34318;45.818;15.964;2022-07-21T03:21:08;24.80;58.60
43997;DHT22;34318;45.818;15.964;2022-07-21T03:23:35;24.70;58.70
43997;DHT22;34318;45.818;15.964;2022-07-21T03:26:02;24.70;59.00
43997;DHT22;34318;45.818;15.964;2022-07-21T03:28:29;24.70;59.10
43997;DHT22;34318;45.818;15.964;2022-07-21T03:30:56;24.70;59.00
43997;DHT22;34318;45.818;15.964;2022-07-21T03:33:23;24.70;59.10
43997;DHT22;34318;45.818;15.964;2022-07-21T03:35:50;24.70;58.90
43997;DHT22;34318;45.818;15.964;2022-07-21T03:38:17;24.60;59.10
43997;DHT22;34318;45.818;15.964;2022-07-21T03:40:43;24.70;59.20
43997;DHT22;34318;45.818;15.964;2022-07-21T03:43:10;24.70;59.10
43997;DHT22;34318;45.818;15.964;2022-07-21T03:45:37;24.70;59.20
43997;DHT22;34318;45.818;15.964;2022-07-21T03:48:05;24.70;59.00
43997;DHT22;34318;45.818;15.964;2022-07-21T03:50:34;24.70;59.20
43997;DHT22;34318;45.818;15.964;2022-07-21T03:53:01;24.60;59.20
43997;DHT22;34318;45.818;15.964;2022-07-21T03:55:28;24.70;59.30
43997;DHT22;34318;45.818;15.964;2022-07-21T03:58:01;24.60;59.30
43997;DHT22;34318;45.818;15.964;2022-07-21T04:00:35;24.60;59.30
43997;DHT22;34318;45.818;15.964;2022-07-21T04:03:04;24.60;59.50
43997;DHT22;34318;45.818;15.964;2022-07-21T04:05:31;24.60;59.60
43997;DHT22;34318;45.818;15.964;2022-07-21T04:07:59;24.70;59.30
43997;DHT22;34318;45.818;15.964;2022-07-21T04:10:28;24.70;59.20
43997;DHT22;34318;45.818;15.964;2022-07-21T04:12:57;24.70;59.20
43997;DHT22;34318;45.818;15.964;2022-07-21T04:15:24;24.60;59.40
43997;DHT22;34318;45.818;15.964;2022-07-21T04:17:52;24.80;58.80
43997;DHT22;34318;45.818;15.964;2022-07-21T04:20:19;24.60;59.20
43997;DHT22;34318;45.818;15.964;2022-07-21T04:22:48;24.60;59.40
43997;DHT22;34318;45.818;15.964;2022-07-21T04:25:16;24.50;60.10
43997;DHT22;34318;45.818;15.964;2022-07-21T04:27:43;24.50;59.70
43997;DHT22;34318;45.818;15.964;2022-07-21T04:30:16;24.50;59.70
43997;DHT22;34318;45.818;15.964;2022-07-21T04:32:44;24.50;59.90
43997;DHT22;34318;45.818;15.964;2022-07-21T04:35:11;24.50;59.80
43997;DHT22;34318;45.818;15.964;2022-07-21T04:37:38;24.50;59.90
43997;DHT22;34318;45.818;15.964;2022-07-21T04:40:07;24.50;60.00
43997;DHT22;34318;45.818;15.964;2022-07-21T04:42:34;24.40;60.10
43997;DHT22;34318;45.818;15.964;2022-07-21T04:45:02;24.30;60.50
43997;DHT22;34318;45.818;15.964;2022-07-21T04:47:30;24.20;61.10
43997;DHT22;34318;45.818;15.964;2022-07-21T04:49:57;24.10;61.40
43997;DHT22;34318;45.818;15.964;2022-07-21T04:52:23;24.20;61.60
43997;DHT22;34318;45.818;15.964;2022-07-21T04:54:50;24.30;61.40
43997;DHT22;34318;45.818;15.964;2022-07-21T04:57:17;24.20;61.80
43997;DHT22;34318;45.818;15.964;2022-07-21T04:59:44;24.10;61.90
43997;DHT22;34318;45.818;15.964;2022-07-21T05:02:10;24.00;62.40
43997;DHT22;34318;45.818;15.964;2022-07-21T05:04:38;24.10;62.20
43997;DHT22;34318;45.818;15.964;2022-07-21T05:07:04;24.10;62.60
43997;DHT22;34318;45.818;15.964;2022-07-21T05:09:31;24.00;63.30
43997;DHT22;34318;45.818;15.964;2022-07-21T05:11:58;24.00;63.10
43997;DHT22;34318;45.818;15.964;2022-07-21T05:14:25;24.10;63.00
43997;DHT22;34318;45.818;15.964;2022-07-21T05:16:52;24.10;63.10
43997;DHT22;34318;45.818;15.964;2022-07-21T05:19:19;24.10;63.30
43997;DHT22;34318;45.818;15.964;2022-07-21T05:21:46;24.10;63.20
43997;DHT22;34318;45.818;15.964;2022-07-21T05:24:13;24.10;63.20
43997;DHT22;34318;45.818;15.964;2022-07-21T05:26:41;24.10;63.40
43997;DHT22;34318;45.818;15.964;2022-07-21T05:29:08;24.20;63.60
43997;DHT22;34318;45.818;15.964;2022-07-21T05:31:35;24.10;64.60
43997;DHT22;34318;45.818;15.964;2022-07-21T05:34:02;24.10;64.60
43997;DHT22;34318;45.818;15.964;2022-07-21T05:36:29;24.20;64.40
43997;DHT22;34318;45.818;15.964;2022-07-21T05:38:56;24.20;64.20
43997;DHT22;34318;45.818;15.964;2022-07-21T05:41:23;24.30;64.20
43997;DHT22;34318;45.818;15.964;2022-07-21T05:43:50;24.30;64.10
43997;DHT22;34318;45.818;15.964;2022-07-21T05:46:18;24.30;64.40
43997;DHT22;34318;45.818;15.964;2022-07-21T05:48:45;24.40;64.50
43997;DHT22;34318;45.818;15.964;2022-07-21T05:51:12;24.40;65.00
43997;DHT22;34318;45.818;15.964;2022-07-21T05:53:44;24.40;65.10
43997;DHT22;34318;45.818;15.964;2022-07-21T05:56:12;24.50;64.90
43997;DHT22;34318;45.818;15.964;2022-07-21T05:58:40;24.50;65.40
43997;DHT22;34318;45.818;15.964;2022-07-21T06:01:06;24.60;65.10
43997;DHT22;34318;45.818;15.964;2022-07-21T06:03:40;24.70;64.30
43997;DHT22;34318;45.818;15.964;2022-07-21T06:06:09;24.90;63.90
43997;DHT22;34318;45.818;15.964;2022-07-21T06:08:37;25.00;63.10
43997;DHT22;34318;45.818;15.964;2022-07-21T06:11:07;25.20;62.70
43997;DHT22;34318;45.818;15.964;2022-07-21T06:13:34;25.20;62.40
43997;DHT22;34318;45.818;15.964;2022-07-21T06:16:02;25.30;61.70
43997;DHT22;34318;45.818;15.964;2022-07-21T06:18:32;25.50;61.70
43997;DHT22;34318;45.818;15.964;2022-07-21T06:21:00;25.50;61.30
43997;DHT22;34318;45.818;15.964;2022-07-21T06:23:27;25.60;61.00
43997;DHT22;34318;45.818;15.964;2022-07-21T06:25:54;25.60;61.30
43997;DHT22;34318;45.818;15.964;2022-07-21T06:28:22;25.70;60.70
43997;DHT22;34318;45.818;15.964;2022-07-21T06:30:49;25.80;60.00
43997;DHT22;34318;45.818;15.964;2022-07-21T06:33:17;26.00;59.80
43997;DHT22;34318;45.818;15.964;2022-07-21T06:35:44;26.00;59.80
43997;DHT22;34318;45.818;15.964;2022-07-21T06:38:10;26.10;59.40
43997;DHT22;34318;45.818;15.964;2022-07-21T06:40:40;26.10;59.20
43997;DHT22;34318;45.818;15.964;2022-07-21T06:43:09;26.20;59.20
43997;DHT22;34318;45.818;15.964;2022-07-21T06:45:55;26.30;59.00
43997;DHT22;34318;45.818;15.964;2022-07-21T06:48:23;26.30;58.90
43997;DHT22;34318;45.818;15.964;2022-07-21T06:50:52;26.30;58.90
43997;DHT22;34318;45.818;15.964;2022-07-21T06:53:19;26.40;58.80
43997;DHT22;34318;45.818;15.964;2022-07-21T06:55:46;26.40;58.80
43997;DHT22;34318;45.818;15.964;2022-07-21T06:58:15;26.40;58.80
43997;DHT22;34318;45.818;15.964;2022-07-21T07:00:44;26.50;58.80
43997;DHT22;34318;45.818;15.964;2022-07-21T07:03:12;26.50;58.80
43997;DHT22;34318;45.818;15.964;2022-07-21T07:05:40;26.50;58.60
43997;DHT22;34318;45.818;15.964;2022-07-21T07:08:06;26.60;58.50
43997;DHT22;34318;45.818;15.964;2022-07-21T07:10:38;26.60;58.40
43997;DHT22;34318;45.818;15.964;2022-07-21T07:13:06;26.60;58.30
43997;DHT22;34318;45.818;15.964;2022-07-21T07:15:53;26.60;58.10
43997;DHT22;34318;45.818;15.964;2022-07-21T07:18:20;26.80;57.90
43997;DHT22;34318;45.818;15.964;2022-07-21T07:20:48;26.70;57.60
43997;DHT22;34318;45.818;15.964;2022-07-21T07:23:15;26.80;57.60
43997;DHT22;34318;45.818;15.964;2022-07-21T07:25:44;26.80;57.30
43997;DHT22;34318;45.818;15.964;2022-07-21T07:28:11;26.90;57.50
43997;DHT22;34318;45.818;15.964;2022-07-21T07:30:39;26.90;57.40
43997;DHT22;34318;45.818;15.964;2022-07-21T07:33:06;27.00;57.40
43997;DHT22;34318;45.818;15.964;2022-07-21T07:35:33;27.00;57.10
43997;DHT22;34318;45.818;15.964;2022-07-21T07:38:00;27.00;57.10
43997;DHT22;34318;45.818;15.964;2022-07-21T07:40:27;27.10;57.00
43997;DHT22;34318;45.818;15.964;2022-07-21T07:42:54;27.10;57.00
43997;DHT22;34318;45.818;15.964;2022-07-21T07:45:21;27.20;56.90
43997;DHT22;34318;45.818;15.964;2022-07-21T07:47:48;27.10;56.90
43997;DHT22;34318;45.818;15.964;2022-07-21T07:50:15;27.20;56.90
43997;DHT22;34318;45.818;15.964;2022-07-21T07:52:43;27.20;56.80
43997;DHT22;34318;45.818;15.964;2022-07-21T07:55:12;27.20;56.70
43997;DHT22;34318;45.818;15.964;2022-07-21T07:57:40;27.20;56.70
43997;DHT22;34318;45.818;15.964;2022-07-21T08:00:11;27.30;56.70
43997;DHT22;34318;45.818;15.964;2022-07-21T08:02:58;27.30;56.70
43997;DHT22;34318;45.818;15.964;2022-07-21T08:05:25;27.30;56.70
43997;DHT22;34318;45.818;15.964;2022-07-21T08:07:52;27.30;56.60
43997;DHT22;34318;45.818;15.964;2022-07-21T08:10:19;27.30;56.70
43997;DHT22;34318;45.818;15.964;2022-07-21T08:13:06;27.40;56.60
43997;DHT22;34318;45.818;15.964;2022-07-21T08:15:35;27.40;56.70
43997;DHT22;34318;45.818;15.964;2022-07-21T08:18:03;27.40;56.60
43997;DHT22;34318;45.818;15.964;2022-07-21T08:20:30;27.50;56.70
43997;DHT22;34318;45.818;15.964;2022-07-21T08:22:57;27.50;56.60
43997;DHT22;34318;45.818;15.964;2022-07-21T08:25:24;27.50;56.70
43997;DHT22;34318;45.818;15.964;2022-07-21T08:27:51;27.50;56.30
43997;DHT22;34318;45.818;15.964;2022-07-21T08:30:17;27.60;56.50
43997;DHT22;34318;45.818;15.964;2022-07-21T08:32:47;27.60;56.40
43997;DHT22;34318;45.818;15.964;2022-07-21T08:35:14;27.60;56.60
43997;DHT22;34318;45.818;15.964;2022-07-21T08:37:41;27.70;56.20
43997;DHT22;34318;45.818;15.964;2022-07-21T08:40:10;27.70;56.40
43997;DHT22;34318;45.818;15.964;2022-07-21T08:42:37;27.70;56.30
43997;DHT22;34318;45.818;15.964;2022-07-21T08:45:07;27.70;56.30
43997;DHT22;34318;45.818;15.964;2022-07-21T08:47:35;27.70;56.30
43997;DHT22;34318;45.818;15.964;2022-07-21T08:50:10;27.70;56.40
43997;DHT22;34318;45.818;15.964;2022-07-21T08:52:37;27.70;56.40
43997;DHT22;34318;45.818;15.964;2022-07-21T08:55:04;27.70;56.40
43997;DHT22;34318;45.818;15.964;2022-07-21T08:57:31;27.70;56.40
43997;DHT22;34318;45.818;15.964;2022-07-21T08:59:59;27.70;56.20
43997;DHT22;34318;45.818;15.964;2022-07-21T09:02:31;27.80;56.20
43997;DHT22;34318;45.818;15.964;2022-07-21T09:05:00;27.80;56.00
43997;DHT22;34318;45.818;15.964;2022-07-21T09:08:06;27.80;56.10
43997;DHT22;34318;45.818;15.964;2022-07-21T09:10:34;27.80;56.30
43997;DHT22;34318;45.818;15.964;2022-07-21T09:13:05;27.80;56.40
43997;DHT22;34318;45.818;15.964;2022-07-21T09:15:33;27.70;56.30
43997;DHT22;34318;45.818;15.964;2022-07-21T09:18:05;27.70;56.30
43997;DHT22;34318;45.818;15.964;2022-07-21T09:20:39;27.70;56.30
43997;DHT22;34318;45.818;15.964;2022-07-21T09:23:15;27.80;56.50
43997;DHT22;34318;45.818;15.964;2022-07-21T09:25:44;27.70;56.50
43997;DHT22;34318;45.818;15.964;2022-07-21T09:28:30;27.80;56.70
43997;DHT22;34318;45.818;15.964;2022-07-21T09:31:07;27.80;56.70
43997;DHT22;34318;45.818;15.964;2022-07-21T09:33:38;27.70;56.70
43997;DHT22;34318;45.818;15.964;2022-07-21T09:36:16;27.70;57.50
43997;DHT22;34318;45.818;15.964;2022-07-21T09:38:54;27.70;56.80
43997;DHT22;34318;45.818;15.964;2022-07-21T09:41:26;27.70;56.80
43997;DHT22;34318;45.818;15.964;2022-07-21T09:43:56;27.70;56.60
43997;DHT22;34318;45.818;15.964;2022-07-21T09:46:28;27.70;56.70
43997;DHT22;34318;45.818;15.964;2022-07-21T09:48:59;27.80;56.70
43997;DHT22;34318;45.818;15.964;2022-07-21T09:51:48;27.80;56.50
43997;DHT22;34318;45.818;15.964;2022-07-21T09:54:15;27.80;56.40
43997;DHT22;34318;45.818;15.964;2022-07-21T09:56:45;27.80;56.40
43997;DHT22;34318;45.818;15.964;2022-07-21T09:59:14;27.80;56.40
43997;DHT22;34318;45.818;15.964;2022-07-21T10:01:41;27.80;56.20
43997;DHT22;34318;45.818;15.964;2022-07-21T10:04:09;27.80;56.20
43997;DHT22;34318;45.818;15.964;2022-07-21T10:06:38;27.80;56.20
43997;DHT22;34318;45.818;15.964;2022-07-21T10:09:08;27.80;56.20
43997;DHT22;34318;45.818;15.964;2022-07-21T10:11:39;27.80;56.10
43997;DHT22;34318;45.818;15.964;2022-07-21T10:14:10;27.80;56.10
43997;DHT22;34318;45.818;15.964;2022-07-21T10:16:38;27.80;56.10
43997;DHT22;34318;45.818;15.964;2022-07-21T10:19:32;27.80;56.10
43997;DHT22;34318;45.818;15.964;2022-07-21T10:22:04;27.80;56.10
43997;DHT22;34318;45.818;15.964;2022-07-21T10:24:35;27.80;56.00
43997;DHT22;34318;45.818;15.964;2022-07-21T10:32:28;27.80;56.10
43997;DHT22;34318;45.818;15.964;2022-07-21T10:34:56;27.80;56.10
43997;DHT22;34318;45.818;15.964;2022-07-21T10:42:34;27.80;56.30
43997;DHT22;34318;45.818;15.964;2022-07-21T10:45:01;27.80;56.30
43997;DHT22;34318;45.818;15.964;2022-07-21T10:47:43;27.80;56.40
43997;DHT22;34318;45.818;15.964;2022-07-21T10:50:36;27.80;56.40
43997;DHT22;34318;45.818;15.964;2022-07-21T10:53:07;27.80;56.40
43997;DHT22;34318;45.818;15.964;2022-07-21T10:55:38;27.80;56.50
43997;DHT22;34318;45.818;15.964;2022-07-21T11:03:29;27.70;56.60
43997;DHT22;34318;45.818;15.964;2022-07-21T11:08:41;27.70;57.00
43997;DHT22;34318;45.818;15.964;2022-07-21T11:14:01;27.80;57.30
43997;DHT22;34318;45.818;15.964;2022-07-21T11:19:42;27.80;57.70
43997;DHT22;34318;45.818;15.964;2022-07-21T11:22:19;27.80;57.50
43997;DHT22;34318;45.818;15.964;2022-07-21T11:24:48;27.80;57.60
43997;DHT22;34318;45.818;15.964;2022-07-21T11:27:21;27.80;57.70
43997;DHT22;34318;45.818;15.964;2022-07-21T11:29:52;27.80;57.60
43997;DHT22;34318;45.818;15.964;2022-07-21T11:32:20;27.80;57.60
43997;DHT22;34318;45.818;15.964;2022-07-21T11:37:31;27.80;57.70
43997;DHT22;34318;45.818;15.964;2022-07-21T11:40:14;27.80;57.70
43997;DHT22;34318;45.818;15.964;2022-07-21T11:42:44;27.80;57.60
43997;DHT22;34318;45.818;15.964;2022-07-21T11:45:13;27.80;57.70
43997;DHT22;34318;45.818;15.964;2022-07-21T11:47:41;27.80;57.90
43997;DHT22;34318;45.818;15.964;2022-07-21T11:50:16;27.90;58.50
43997;DHT22;34318;45.818;15.964;2022-07-21T11:52:43;28.00;58.40
43997;DHT22;34318;45.818;15.964;2022-07-21T11:55:11;28.00;58.60
43997;DHT22;34318;45.818;15.964;2022-07-21T11:57:45;28.00;58.90
43997;DHT22;34318;45.818;15.964;2022-07-21T12:00:13;28.00;60.00
43997;DHT22;34318;45.818;15.964;2022-07-21T12:02:43;28.10;60.60
43997;DHT22;34318;45.818;15.964;2022-07-21T12:05:11;28.10;61.60
43997;DHT22;34318;45.818;15.964;2022-07-21T12:07:42;28.10;62.60
43997;DHT22;34318;45.818;15.964;2022-07-21T12:10:13;28.10;62.50
43997;DHT22;34318;45.818;15.964;2022-07-21T12:12:45;28.10;63.00
43997;DHT22;34318;45.818;15.964;2022-07-21T12:15:21;28.10;63.60
43997;DHT22;34318;45.818;15.964;2022-07-21T12:18:00;28.10;63.90
43997;DHT22;34318;45.818;15.964;2022-07-21T12:22:56;28.00;63.30
43997;DHT22;34318;45.818;15.964;2022-07-21T12:25:35;28.00;63.30
43997;DHT22;34318;45.818;15.964;2022-07-21T12:28:04;28.00;62.80
43997;DHT22;34318;45.818;15.964;2022-07-21T12:30:43;28.00;62.60
43997;DHT22;34318;45.818;15.964;2022-07-21T12:33:26;28.00;62.70
43997;DHT22;34318;45.818;15.964;2022-07-21T12:36:03;28.00;63.40
43997;DHT22;34318;45.818;15.964;2022-07-21T12:38:47;28.00;63.20
43997;DHT22;34318;45.818;15.964;2022-07-21T12:41:18;28.00;63.10
43997;DHT22;34318;45.818;15.964;2022-07-21T12:43:58;28.00;63.20
43997;DHT22;34318;45.818;15.964;2022-07-21T12:46:30;28.00;63.00
43997;DHT22;34318;45.818;15.964;2022-07-21T12:49:08;28.00;62.60
43997;DHT22;34318;45.818;15.964;2022-07-21T12:51:38;28.00;62.60
43997;DHT22;34318;45.818;15.964;2022-07-21T12:54:05;28.00;62.50
43997;DHT22;34318;45.818;15.964;2022-07-21T12:56:34;27.90;62.30
43997;DHT22;34318;45.818;15.964;2022-07-21T12:59:02;27.90;62.10
43997;DHT22;34318;45.818;15.964;2022-07-21T13:01:30;28.00;62.00
43997;DHT22;34318;45.818;15.964;2022-07-21T13:04:04;27.90;61.90
43997;DHT22;34318;45.818;15.964;2022-07-21T13:06:31;28.00;61.60
43997;DHT22;34318;45.818;15.964;2022-07-21T13:08:58;27.90;61.50
43997;DHT22;34318;45.818;15.964;2022-07-21T13:11:26;27.90;61.30
43997;DHT22;34318;45.818;15.964;2022-07-21T13:13:53;27.90;61.10
43997;DHT22;34318;45.818;15.964;2022-07-21T13:16:20;27.90;61.00
43997;DHT22;34318;45.818;15.964;2022-07-21T13:18:50;27.90;60.90
43997;DHT22;34318;45.818;15.964;2022-07-21T13:21:18;28.00;60.70
43997;DHT22;34318;45.818;15.964;2022-07-21T13:23:45;28.00;60.70
43997;DHT22;34318;45.818;15.964;2022-07-21T13:26:12;28.00;60.60
43997;DHT22;34318;45.818;15.964;2022-07-21T13:28:40;27.90;60.50
43997;DHT22;34318;45.818;15.964;2022-07-21T13:31:08;27.90;60.30
43997;DHT22;34318;45.818;15.964;2022-07-21T13:33:36;27.90;60.40
43997;DHT22;34318;45.818;15.964;2022-07-21T13:36:05;27.90;60.40
43997;DHT22;34318;45.818;15.964;2022-07-21T13:38:32;27.90;60.30
43997;DHT22;34318;45.818;15.964;2022-07-21T13:41:00;27.90;60.30
43997;DHT22;34318;45.818;15.964;2022-07-21T13:43:47;27.90;60.20
43997;DHT22;34318;45.818;15.964;2022-07-21T13:46:14;27.90;60.20
43997;DHT22;34318;45.818;15.964;2022-07-21T13:48:41;27.90;60.20
43997;DHT22;34318;45.818;15.964;2022-07-21T13:51:16;27.90;60.20
43997;DHT22;34318;45.818;15.964;2022-07-21T13:53:44;28.00;60.40
43997;DHT22;34318;45.818;15.964;2022-07-21T13:56:12;28.00;60.60
43997;DHT22;34318;45.818;15.964;2022-07-21T13:58:40;28.00;60.90
43997;DHT22;34318;45.818;15.964;2022-07-21T14:01:09;27.90;60.90
43997;DHT22;34318;45.818;15.964;2022-07-21T14:03:37;28.00;61.10
43997;DHT22;34318;45.818;15.964;2022-07-21T14:06:05;28.00;60.60
43997;DHT22;34318;45.818;15.964;2022-07-21T14:08:32;28.00;60.60
43997;DHT22;34318;45.818;15.964;2022-07-21T14:10:59;28.00;60.80
43997;DHT22;34318;45.818;15.964;2022-07-21T14:13:26;28.00;60.50
43997;DHT22;34318;45.818;15.964;2022-07-21T14:15:53;28.00;60.40
43997;DHT22;34318;45.818;15.964;2022-07-21T14:18:20;28.00;60.50
43997;DHT22;34318;45.818;15.964;2022-07-21T14:20:47;28.00;60.50
43997;DHT22;34318;45.818;15.964;2022-07-21T14:23:19;28.00;61.50
43997;DHT22;34318;45.818;15.964;2022-07-21T14:25:48;28.10;61.60
43997;DHT22;34318;45.818;15.964;2022-07-21T14:28:16;28.10;62.50
43997;DHT22;34318;45.818;15.964;2022-07-21T14:30:44;28.10;63.90
43997;DHT22;34318;45.818;15.964;2022-07-21T14:33:11;28.20;65.00
43997;DHT22;34318;45.818;15.964;2022-07-21T14:35:38;28.20;66.90
43997;DHT22;34318;45.818;15.964;2022-07-21T14:38:06;28.20;67.40
43997;DHT22;34318;45.818;15.964;2022-07-21T14:40:33;28.20;66.80
43997;DHT22;34318;45.818;15.964;2022-07-21T14:43:00;28.20;67.10
43997;DHT22;34318;45.818;15.964;2022-07-21T14:45:28;28.10;66.50
43997;DHT22;34318;45.818;15.964;2022-07-21T14:47:56;28.10;66.40
43997;DHT22;34318;45.818;15.964;2022-07-21T14:50:25;28.10;66.30
43997;DHT22;34318;45.818;15.964;2022-07-21T14:52:57;28.10;66.20
43997;DHT22;34318;45.818;15.964;2022-07-21T14:55:26;28.00;65.60
43997;DHT22;34318;45.818;15.964;2022-07-21T14:57:55;28.10;65.80
43997;DHT22;34318;45.818;15.964;2022-07-21T15:00:22;28.10;65.80
43997;DHT22;34318;45.818;15.964;2022-07-21T15:02:53;28.10;65.90
43997;DHT22;34318;45.818;15.964;2022-07-21T15:05:22;28.10;65.40
43997;DHT22;34318;45.818;15.964;2022-07-21T15:07:49;28.10;65.50
43997;DHT22;34318;45.818;15.964;2022-07-21T15:10:16;28.10;65.30
43997;DHT22;34318;45.818;15.964;2022-07-21T15:12:43;28.10;65.60
43997;DHT22;34318;45.818;15.964;2022-07-21T15:15:11;28.10;65.60
43997;DHT22;34318;45.818;15.964;2022-07-21T15:17:39;28.10;65.30
43997;DHT22;34318;45.818;15.964;2022-07-21T15:20:07;28.10;65.10
43997;DHT22;34318;45.818;15.964;2022-07-21T15:22:40;28.10;64.90
43997;DHT22;34318;45.818;15.964;2022-07-21T15:25:07;28.10;65.20
43997;DHT22;34318;45.818;15.964;2022-07-21T15:27:38;28.10;65.10
43997;DHT22;34318;45.818;15.964;2022-07-21T15:30:08;28.10;65.10
43997;DHT22;34318;45.818;15.964;2022-07-21T15:32:35;28.20;65.00
43997;DHT22;34318;45.818;15.964;2022-07-21T15:35:03;28.10;65.10
43997;DHT22;34318;45.818;15.964;2022-07-21T15:37:31;28.10;64.80
43997;DHT22;34318;45.818;15.964;2022-07-21T15:39:58;28.20;65.00
43997;DHT22;34318;45.818;15.964;2022-07-21T15:42:25;28.10;65.10
43997;DHT22;34318;45.818;15.964;2022-07-21T15:44:52;28.10;65.20
43997;DHT22;34318;45.818;15.964;2022-07-21T15:47:19;28.10;65.80
43997;DHT22;34318;45.818;15.964;2022-07-21T15:49:46;28.10;65.50
43997;DHT22;34318;45.818;15.964;2022-07-21T15:52:15;28.10;65.20
43997;DHT22;34318;45.818;15.964;2022-07-21T15:54:42;28.20;65.10
43997;DHT22;34318;45.818;15.964;2022-07-21T15:57:27;28.10;64.90